createdAt,value
2019-05-15T00:02:22.659Z,59.80
2019-05-15T00:04:58.552Z,59.80
2019-05-15T00:07:30.050Z,59.80
2019-05-15T00:10:01.654Z,59.90
2019-05-15T00:12:33.551Z,60.00
2019-05-15T00:15:08.894Z,60.10
2019-05-15T00:17:39.716Z,60.20
2019-05-15T00:20:11.407Z,60.20
2019-05-15T00:22:43.552Z,60.30
2019-05-15T00:25:14.906Z,60.30
2019-05-15T00:27:48.934Z,60.20
2019-05-15T00:30:20.194Z,60.40
2019-05-15T00:32:52.869Z,60.50
2019-05-15T00:35:27.931Z,60.80
2019-05-15T00:37:58.573Z,61.10
2019-05-15T00:40:30.531Z,61.00
2019-05-15T00:43:02.111Z,61.30
2019-05-15T00:45:34.035Z,61.40
2019-05-15T00:48:05.546Z,61.60
2019-05-15T00:50:39.023Z,61.80
2019-05-15T00:53:10.385Z,62.00
2019-05-15T00:55:42.954Z,62.20
2019-05-15T00:58:14.967Z,62.40
2019-05-15T01:00:48.516Z,62.40
2019-05-15T01:03:20.732Z,62.50
2019-05-15T01:05:52.174Z,62.50
2019-05-15T01:08:23.902Z,62.60
2019-05-15T01:10:58.064Z,62.70
2019-05-15T01:13:29.845Z,62.70
2019-05-15T01:16:02.151Z,62.60
2019-05-15T01:18:34.300Z,62.80
2019-05-15T01:21:08.194Z,63.00
2019-05-15T01:23:39.247Z,63.30
2019-05-15T01:26:10.607Z,63.50
2019-05-15T01:28:42.493Z,63.60
2019-05-15T01:31:14.115Z,63.70
2019-05-15T01:33:47.950Z,63.70
2019-05-15T01:36:19.314Z,63.90
2019-05-15T01:38:51.261Z,64.00
2019-05-15T01:41:22.709Z,64.20
2019-05-15T01:43:54.331Z,64.40
2019-05-15T01:46:28.376Z,64.60
2019-05-15T01:49:02.997Z,64.60
2019-05-15T01:51:34.439Z,64.80
2019-05-15T01:54:06.465Z,64.90
2019-05-15T01:56:38.762Z,65.10
2019-05-15T01:59:11.571Z,65.50
2019-05-15T02:01:43.109Z,65.80
2019-05-15T02:04:14.948Z,66.00
2019-05-15T02:06:48.258Z,66.10
2019-05-15T02:09:19.736Z,66.30
2019-05-15T02:11:51.448Z,66.60
2019-05-15T02:14:23.015Z,67.10
2019-05-15T02:16:55.550Z,67.10
2019-05-15T02:19:28.782Z,67.30
2019-05-15T02:22:00.586Z,67.50
2019-05-15T02:24:32.236Z,67.60
2019-05-15T02:27:04.667Z,67.70
2019-05-15T02:29:37.824Z,67.70
2019-05-15T02:32:10.191Z,67.80
2019-05-15T02:34:41.875Z,68.00
2019-05-15T02:37:13.172Z,68.10
2019-05-15T02:39:49.577Z,68.20
2019-05-15T02:42:22.444Z,68.30
2019-05-15T02:44:54.004Z,68.30
2019-05-15T02:47:28.882Z,68.50
2019-05-15T02:49:59.395Z,68.50
2019-05-15T02:52:31.977Z,68.50
2019-05-15T02:55:03.376Z,68.70
2019-05-15T02:57:34.924Z,68.50
2019-05-15T03:00:10.967Z,68.60
2019-05-15T03:02:41.683Z,68.70
2019-05-15T03:05:13.421Z,69.00
2019-05-15T03:07:45.034Z,69.20
2019-05-15T03:10:19.997Z,69.30
2019-05-15T03:12:51.730Z,69.60
2019-05-15T03:15:24.219Z,69.40
2019-05-15T03:17:56.418Z,69.60
2019-05-15T03:20:29.724Z,69.50
2019-05-15T03:23:01.870Z,69.60
2019-05-15T03:25:34.742Z,69.60
2019-05-15T03:28:10.111Z,69.80
2019-05-15T03:31:12.205Z,69.80
2019-05-15T03:33:26.309Z,69.90
2019-05-15T03:35:54.195Z,69.90
2019-05-15T03:38:29.674Z,70.10
2019-05-15T03:41:01.362Z,70.30
2019-05-15T03:43:33.885Z,70.20
2019-05-15T03:46:08.763Z,70.10
2019-05-15T03:48:40.134Z,70.90
2019-05-15T03:51:14.047Z,70.00
2019-05-15T03:53:49.444Z,69.80
2019-05-15T03:56:19.542Z,69.80
2019-05-15T03:58:51.481Z,69.80
2019-05-15T04:01:34.113Z,70.10
2019-05-15T04:03:59.723Z,70.20
2019-05-15T04:06:31.099Z,70.20
2019-05-15T04:09:02.625Z,70.40
2019-05-15T04:11:34.261Z,70.40
2019-05-15T04:14:06.007Z,70.20
2019-05-15T04:16:39.099Z,70.30
2019-05-15T04:19:11.411Z,70.10
2019-05-15T04:21:45.123Z,70.30
2019-05-15T04:24:18.960Z,69.90
2019-05-15T04:26:53.213Z,69.70
2019-05-15T04:29:23.972Z,69.70
2019-05-15T04:32:01.030Z,69.60
2019-05-15T04:34:29.039Z,69.50
2019-05-15T04:36:59.884Z,69.50
2019-05-15T04:39:30.891Z,69.20
2019-05-15T04:42:01.771Z,68.70
2019-05-15T04:44:32.830Z,68.70
2019-05-15T04:47:03.800Z,69.10
2019-05-15T04:49:35.518Z,69.80
2019-05-15T04:52:09.753Z,68.10
2019-05-15T04:54:40.177Z,68.40
2019-05-15T04:57:11.502Z,68.80
2019-05-15T04:59:42.666Z,69.10
2019-05-15T05:02:24.268Z,68.90
2019-05-15T05:04:45.964Z,68.80
2019-05-15T05:07:18.924Z,68.90
2019-05-15T05:09:49.518Z,68.90
2019-05-15T05:12:20.449Z,69.00
2019-05-15T05:14:51.323Z,68.50
2019-05-15T05:17:22.374Z,68.70
2019-05-15T05:19:53.206Z,67.70
2019-05-15T05:22:24.151Z,67.70
2019-05-15T05:24:55.114Z,68.00
2019-05-15T05:27:25.954Z,68.20
2019-05-15T05:29:58.700Z,68.30
2019-05-15T05:32:34.996Z,68.10
2019-05-15T05:35:08.173Z,67.50
2019-05-15T05:37:40.299Z,66.90
2019-05-15T05:40:12.276Z,66.80
2019-05-15T05:42:43.745Z,66.30
2019-05-15T05:45:15.184Z,66.50
2019-05-15T05:47:48.595Z,66.30
2019-05-15T05:50:44.436Z,66.00
2019-05-15T05:53:15.859Z,66.60
2019-05-15T05:55:49.166Z,67.20
2019-05-15T05:58:20.613Z,67.70
2019-05-15T06:00:52.409Z,67.00
2019-05-15T06:03:23.773Z,66.60
2019-05-15T06:05:58.823Z,65.90
2019-05-15T06:08:29.041Z,65.50
2019-05-15T06:11:00.891Z,65.70
2019-05-15T06:13:33.805Z,66.20
2019-05-15T06:16:05.033Z,66.40
2019-05-15T06:18:38.804Z,66.10
2019-05-15T06:21:09.935Z,65.90
2019-05-15T06:23:45.558Z,65.30
2019-05-15T06:26:14.779Z,65.60
2019-05-15T06:28:48.738Z,65.70
2019-05-15T06:31:19.301Z,65.50
2019-05-15T06:33:50.460Z,65.10
2019-05-15T06:36:21.738Z,64.80
2019-05-15T06:38:53.016Z,65.50
2019-05-15T06:41:24.403Z,65.00
2019-05-15T06:43:55.365Z,63.10
2019-05-15T06:46:28.134Z,62.70
2019-05-15T06:49:00.276Z,63.20
2019-05-15T06:51:31.946Z,63.60
2019-05-15T06:54:03.258Z,63.20
2019-05-15T06:56:34.549Z,62.50
2019-05-15T06:59:08.579Z,62.40
2019-05-15T07:01:39.002Z,61.50
2019-05-15T07:04:10.745Z,61.50
2019-05-15T07:06:42.611Z,61.70
2019-05-15T07:09:13.849Z,61.10
2019-05-15T07:11:45.249Z,60.70
2019-05-15T07:14:18.115Z,60.50
2019-05-15T07:16:49.380Z,60.50
2019-05-15T07:19:21.129Z,59.80
2019-05-15T07:21:52.799Z,59.60
2019-05-15T07:24:24.280Z,59.60
2019-05-15T07:26:55.511Z,60.10
2019-05-15T07:29:29.077Z,59.50
2019-05-15T07:31:59.872Z,58.90
2019-05-15T07:34:31.303Z,58.90
2019-05-15T07:37:02.671Z,58.60
2019-05-15T07:39:33.906Z,60.00
2019-05-15T07:42:05.716Z,60.10
2019-05-15T07:44:38.815Z,59.10
2019-05-15T07:47:10.002Z,58.90
2019-05-15T07:49:41.347Z,58.90
2019-05-15T07:52:12.830Z,58.30
2019-05-15T07:54:43.964Z,59.00
2019-05-15T07:57:15.131Z,58.80
2019-05-15T07:59:48.000Z,58.70
2019-05-15T08:02:19.374Z,58.10
2019-05-15T08:04:50.981Z,57.70
2019-05-15T08:07:22.320Z,57.60
2019-05-15T08:09:53.548Z,57.40
2019-05-15T08:12:24.872Z,58.50
2019-05-15T08:15:02.501Z,58.60
2019-05-15T08:17:34.338Z,58.00
2019-05-15T08:20:09.032Z,57.90
2019-05-15T08:22:40.996Z,57.20
2019-05-15T08:25:30.071Z,56.00
2019-05-15T08:27:48.468Z,56.30
2019-05-15T08:30:22.027Z,56.20
2019-05-15T08:32:53.331Z,56.80
2019-05-15T08:35:24.391Z,56.90
2019-05-15T08:37:57.974Z,57.00
2019-05-15T08:40:28.563Z,56.40
2019-05-15T08:43:02.164Z,55.80
2019-05-15T08:45:32.985Z,55.20
2019-05-15T08:48:04.311Z,54.50
2019-05-15T08:50:35.701Z,54.20
2019-05-15T08:53:08.411Z,54.20
2019-05-15T08:55:40.008Z,54.40
2019-05-15T08:58:14.083Z,54.10
2019-05-15T09:00:44.554Z,54.20
2019-05-15T09:03:18.094Z,53.70
2019-05-15T09:05:49.029Z,53.20
2019-05-15T09:08:20.594Z,53.70
2019-05-15T09:10:51.938Z,54.00
2019-05-15T09:13:23.059Z,52.40
2019-05-15T09:15:54.277Z,52.20
2019-05-15T09:18:25.499Z,52.30
2019-05-15T09:20:59.340Z,52.90
2019-05-15T09:23:30.429Z,52.00
2019-05-15T09:26:02.380Z,51.70
2019-05-15T09:28:33.450Z,50.60
2019-05-15T09:31:04.880Z,49.80
2019-05-15T09:33:38.729Z,50.80
2019-05-15T09:36:10.410Z,51.50
2019-05-15T09:38:41.658Z,49.80
2019-05-15T09:41:13.334Z,48.10
2019-05-15T09:43:44.790Z,46.70
2019-05-15T09:46:18.493Z,46.10
2019-05-15T09:48:51.790Z,45.90
2019-05-15T09:51:23.388Z,45.20
2019-05-15T09:53:55.061Z,44.80
2019-05-15T09:56:29.054Z,45.00
2019-05-15T09:58:59.760Z,45.70
2019-05-15T10:01:31.355Z,44.70
2019-05-15T10:04:02.644Z,45.20
2019-05-15T10:06:34.013Z,45.60
2019-05-15T10:09:08.869Z,46.20
2019-05-15T10:11:39.399Z,46.20
2019-05-15T10:14:11.701Z,43.60
2019-05-15T10:16:43.443Z,44.60
2019-05-15T10:19:14.917Z,45.10
2019-05-15T10:21:52.496Z,46.00
2019-05-15T10:24:19.464Z,44.60
2019-05-15T10:26:50.570Z,45.20
2019-05-15T10:29:21.705Z,44.40
2019-05-15T10:31:54.262Z,44.20
2019-05-15T10:34:25.507Z,45.10
2019-05-15T10:36:58.854Z,45.10
2019-05-15T10:39:30.024Z,43.70
2019-05-15T10:42:01.683Z,43.10
2019-05-15T10:44:32.993Z,43.90
2019-05-15T10:47:04.448Z,42.50
2019-05-15T10:49:35.922Z,42.70
2019-05-15T10:52:08.701Z,42.00
2019-05-15T10:54:41.264Z,42.30
2019-05-15T10:57:12.732Z,41.70
2019-05-15T10:59:44.129Z,42.20
2019-05-15T11:02:19.178Z,41.40
2019-05-15T11:04:51.858Z,41.60
2019-05-15T11:07:23.536Z,40.30
2019-05-15T11:09:54.845Z,39.60
2019-05-15T11:12:29.022Z,40.00
2019-05-15T11:15:02.284Z,40.20
2019-05-15T11:17:34.164Z,40.60
2019-05-15T11:20:08.169Z,40.30
2019-05-15T11:22:42.810Z,39.30
2019-05-15T11:25:12.303Z,40.50
2019-05-15T11:27:43.607Z,39.10
2019-05-15T11:30:18.932Z,39.50
2019-05-15T11:32:49.424Z,38.40
2019-05-15T11:35:20.849Z,37.60
2019-05-15T11:37:56.746Z,38.20
2019-05-15T11:40:28.228Z,35.90
2019-05-15T11:42:59.962Z,36.20
2019-05-15T11:45:31.375Z,36.20
2019-05-15T11:48:02.658Z,36.80
2019-05-15T11:50:34.171Z,37.50
2019-05-15T11:53:08.770Z,38.50
2019-05-15T11:55:41.049Z,38.10
2019-05-15T11:58:12.019Z,39.60
2019-05-15T12:00:43.456Z,40.50
2019-05-15T12:03:14.676Z,40.30
2019-05-15T12:05:45.967Z,39.40
2019-05-15T12:08:18.630Z,38.00
2019-05-15T12:10:50.085Z,36.80
2019-05-15T12:13:21.944Z,37.50
2019-05-15T12:15:53.034Z,37.40
2019-05-15T12:18:27.931Z,36.90
2019-05-15T12:20:59.469Z,37.50
2019-05-15T12:23:31.330Z,36.60
2019-05-15T12:26:02.782Z,36.90
2019-05-15T12:28:33.847Z,37.80
2019-05-15T12:31:05.266Z,36.60
2019-05-15T12:33:38.467Z,37.90
2019-05-15T12:36:11.023Z,37.50
2019-05-15T12:38:42.230Z,37.40
2019-05-15T13:01:38.779Z,36.60
2019-05-15T13:04:13.452Z,36.00
2019-05-15T13:06:49.476Z,35.40
2019-05-15T13:09:19.286Z,34.10
2019-05-15T13:11:50.088Z,34.60
2019-05-15T13:14:28.389Z,33.40
2019-05-15T13:16:59.407Z,33.60
2019-05-15T13:19:31.903Z,35.10
2019-05-15T13:22:16.282Z,35.70
2019-05-15T13:24:38.687Z,37.30
2019-05-15T13:27:10.388Z,38.10
2019-05-15T13:29:41.721Z,39.50
2019-05-15T13:32:13.404Z,39.50
2019-05-15T13:34:44.763Z,39.90
2019-05-15T13:37:26.864Z,40.10
2019-05-15T13:39:50.178Z,40.60
2019-05-15T13:42:21.356Z,42.00
2019-05-15T13:44:52.489Z,43.20
2019-05-15T13:47:28.198Z,42.20
2019-05-15T13:50:00.680Z,41.90
2019-05-15T13:52:32.827Z,42.40
2019-05-15T13:55:05.175Z,42.10
2019-05-15T13:57:38.395Z,42.40
2019-05-15T14:00:10.255Z,42.90
2019-05-15T14:02:41.197Z,43.20
2019-05-15T14:05:13.258Z,42.40
2019-05-15T14:07:50.622Z,42.50
2019-05-15T14:10:20.826Z,42.80
2019-05-15T14:12:52.260Z,43.60
2019-05-15T14:15:23.528Z,43.40
2019-05-15T14:17:57.695Z,43.40
2019-05-15T14:20:30.928Z,44.20
2019-05-15T14:23:03.304Z,45.00
2019-05-15T14:25:34.586Z,45.50
2019-05-15T14:28:09.234Z,45.30
2019-05-15T14:30:41.090Z,45.10
2019-05-15T14:33:12.396Z,45.60
2019-05-15T14:35:44.238Z,46.10
2019-05-15T14:38:18.096Z,46.20
2019-05-15T14:40:50.521Z,45.90
2019-05-15T14:43:21.915Z,45.60
2019-05-15T14:45:58.557Z,45.80
2019-05-15T14:48:30.077Z,46.20
2019-05-15T14:51:02.068Z,46.00
2019-05-15T14:53:33.270Z,46.00
2019-05-15T14:56:05.284Z,46.20
2019-05-15T14:58:38.710Z,46.70
2019-05-15T15:01:12.866Z,46.40
2019-05-15T15:03:44.379Z,46.50
2019-05-15T15:06:18.205Z,47.30
2019-05-15T15:08:49.105Z,47.50
2019-05-15T15:11:20.702Z,47.90
2019-05-15T15:13:57.837Z,48.10
2019-05-15T15:16:29.283Z,48.50
2019-05-15T15:19:01.785Z,49.70
2019-05-15T15:21:33.525Z,50.30
2019-05-15T15:24:05.014Z,50.20
2019-05-15T15:26:36.076Z,51.00
2019-05-15T15:29:08.510Z,50.60
2019-05-15T15:31:49.170Z,51.00
2019-05-15T15:34:40.131Z,51.30
2019-05-15T15:46:09.380Z,54.90
2019-05-15T15:48:42.604Z,55.10
2019-05-15T15:51:14.781Z,55.60
2019-05-15T15:53:47.963Z,55.90
2019-05-15T15:56:19.774Z,56.10
2019-05-15T15:58:51.958Z,56.30
2019-05-15T16:01:24.671Z,56.80
2019-05-15T16:03:56.444Z,56.10
2019-05-15T16:06:48.098Z,56.50
2019-05-15T16:09:21.554Z,56.80
2019-05-15T16:11:53.355Z,57.20
2019-05-15T16:14:25.003Z,57.40
2019-05-15T16:16:56.953Z,56.70
2019-05-15T16:19:28.973Z,57.10
2019-05-15T16:22:00.508Z,57.00
2019-05-15T16:24:32.190Z,56.90
2019-05-15T16:27:03.910Z,57.10
2019-05-15T16:29:39.037Z,57.10
2019-05-15T16:32:09.865Z,57.50
2019-05-15T16:34:43.191Z,57.50
2019-05-15T16:37:15.032Z,57.40
2019-05-15T16:39:48.835Z,58.00
2019-05-15T16:42:20.646Z,58.50
2019-05-15T16:44:52.548Z,58.60
2019-05-15T16:47:24.382Z,59.10
2019-05-15T16:49:58.013Z,60.10
2019-05-15T16:52:31.048Z,60.80
2019-05-15T16:58:21.135Z,63.10
2019-05-15T17:00:53.029Z,64.30
2019-05-15T17:03:24.831Z,65.10
2019-05-15T17:05:58.754Z,65.40
2019-05-15T17:08:32.231Z,66.30
2019-05-15T17:14:28.784Z,68.30
2019-05-15T17:17:01.649Z,68.20
2019-05-15T17:19:33.546Z,68.30
2019-05-15T17:22:05.638Z,69.00
2019-05-15T17:24:38.722Z,69.20
2019-05-15T17:27:12.331Z,68.90
2019-05-15T17:29:44.916Z,69.40
2019-05-15T17:32:18.466Z,69.80
2019-05-15T17:34:50.394Z,70.10
2019-05-15T17:37:22.121Z,70.10
2019-05-15T17:39:53.781Z,69.80
2019-05-15T17:42:25.464Z,70.50
2019-05-15T17:44:57.909Z,70.80
2019-05-15T17:47:30.332Z,70.50
2019-05-15T17:50:01.965Z,70.70
2019-05-15T17:52:34.095Z,70.50
2019-05-15T17:55:05.957Z,70.90
2019-05-15T17:57:39.108Z,71.20
2019-05-15T18:00:12.928Z,71.20
2019-05-15T18:02:44.910Z,70.70
2019-05-15T18:05:18.870Z,70.70
2019-05-15T18:07:50.189Z,71.30
2019-05-15T18:10:21.952Z,71.00
2019-05-15T18:12:54.041Z,70.80
2019-05-15T18:15:25.631Z,71.20
2019-05-15T18:17:59.323Z,71.20
2019-05-15T18:20:31.972Z,71.90
2019-05-15T18:23:03.836Z,72.20
2019-05-15T18:25:38.196Z,72.00
2019-05-15T18:28:09.408Z,72.20
2019-05-15T18:30:41.723Z,72.70
2019-05-15T18:33:13.976Z,72.60
2019-05-15T18:35:45.895Z,72.60
2019-05-15T18:38:19.072Z,72.90
2019-05-15T18:40:51.883Z,73.00
2019-05-15T18:43:24.489Z,73.10
2019-05-15T18:45:58.305Z,73.40
2019-05-15T18:48:29.622Z,73.20
2019-05-15T18:51:01.301Z,72.70
2019-05-15T18:53:32.801Z,72.80
2019-05-15T18:56:08.962Z,72.70
2019-05-15T18:58:40.482Z,72.80
2019-05-15T19:01:12.831Z,72.80
2019-05-15T19:03:44.676Z,72.80
2019-05-15T19:06:18.490Z,73.10
2019-05-15T19:08:53.110Z,72.60
2019-05-15T19:11:24.522Z,72.60
2019-05-15T19:13:58.723Z,72.60
2019-05-15T19:16:31.751Z,72.70
2019-05-15T19:19:03.345Z,72.70
2019-05-15T19:21:35.239Z,72.70
2019-05-15T19:24:07.694Z,72.30
2019-05-15T19:26:39.689Z,72.60
2019-05-15T19:29:11.315Z,72.70
2019-05-15T19:31:42.537Z,72.60
2019-05-15T19:34:14.547Z,71.50
2019-05-15T19:36:48.769Z,72.30
2019-05-15T19:39:21.115Z,72.80
2019-05-15T19:41:53.122Z,72.30
2019-05-15T19:44:25.318Z,72.00
2019-05-15T19:46:58.529Z,72.80
2019-05-15T19:49:31.286Z,73.10
2019-05-15T19:52:03.012Z,73.30
2019-05-15T19:54:34.909Z,73.20
2019-05-15T19:57:08.445Z,73.40
2019-05-15T19:59:40.785Z,73.50
2019-05-15T20:02:12.529Z,73.80
2019-05-15T20:04:44.516Z,74.10
2019-05-15T20:07:18.259Z,74.20
2019-05-15T20:09:49.707Z,74.40
2019-05-15T20:12:21.869Z,74.70
2019-05-15T20:14:53.794Z,74.80
2019-05-15T20:17:24.968Z,74.60
2019-05-15T20:19:58.094Z,75.00
2019-05-15T20:22:30.122Z,75.00
2019-05-15T20:25:02.355Z,74.90
2019-05-15T20:27:35.095Z,75.00
2019-05-15T20:30:08.662Z,75.00
2019-05-15T20:32:41.402Z,74.90
2019-05-15T20:35:12.623Z,74.40
2019-05-15T20:37:43.783Z,74.50
2019-05-15T20:40:17.939Z,75.50
2019-05-15T20:42:48.508Z,74.80
2019-05-15T20:45:19.578Z,74.80
2019-05-15T20:47:50.551Z,74.70
2019-05-15T20:50:21.657Z,75.10
2019-05-15T20:52:52.973Z,75.30
2019-05-15T20:55:23.991Z,75.40
2019-05-15T20:57:55.118Z,75.00
2019-05-15T21:00:26.779Z,75.20
2019-05-15T21:02:57.858Z,75.20
2019-05-15T21:05:29.049Z,75.10
2019-05-15T21:08:00.198Z,75.40
2019-05-15T21:10:31.128Z,75.60
2019-05-15T21:13:02.048Z,75.50
2019-05-15T21:15:34.186Z,75.50
2019-05-15T21:18:14.214Z,75.60
2019-05-15T21:20:37.849Z,75.70
2019-05-15T21:23:09.963Z,75.60
2019-05-15T21:25:41.080Z,75.80
2019-05-15T21:28:11.975Z,76.00
2019-05-15T21:30:43.293Z,75.40
2019-05-15T21:33:17.695Z,75.40
2019-05-15T21:35:47.705Z,75.50
2019-05-15T21:38:21.311Z,75.20
2019-05-15T21:40:51.246Z,75.30
2019-05-15T21:43:22.115Z,75.30
2019-05-15T21:45:52.960Z,75.50
2019-05-15T21:48:24.616Z,75.70
2019-05-15T21:50:56.473Z,75.70
2019-05-15T21:53:28.734Z,75.80
2019-05-15T21:56:00.121Z,75.70
2019-05-15T21:58:32.764Z,75.70
2019-05-15T22:01:04.231Z,75.80
2019-05-15T22:03:38.806Z,76.00
2019-05-15T22:06:09.946Z,76.00
2019-05-15T22:08:41.015Z,75.70
2019-05-15T22:11:12.745Z,75.30
2019-05-15T22:13:44.622Z,74.70
2019-05-15T22:16:18.388Z,74.60
2019-05-15T22:18:49.585Z,74.60
2019-05-15T22:21:20.853Z,74.80
2019-05-15T22:23:52.359Z,75.00
2019-05-15T22:26:25.175Z,75.00
2019-05-15T22:28:58.415Z,75.20
2019-05-15T22:44:29.475Z,73.90
2019-05-15T22:47:00.604Z,73.70
2019-05-15T22:49:32.240Z,73.60
2019-05-15T22:52:03.779Z,73.20
2019-05-15T22:54:34.990Z,73.60
2019-05-15T22:57:06.069Z,73.40
2019-05-15T22:59:38.260Z,73.70
2019-05-15T23:02:09.694Z,73.30
2019-05-15T23:04:40.778Z,73.00
2019-05-15T23:07:12.203Z,73.40
2019-05-15T23:09:43.650Z,73.30
2019-05-15T23:12:14.573Z,73.40
2019-05-15T23:14:45.551Z,73.30
2019-05-15T23:17:16.578Z,72.90
2019-05-15T23:19:48.572Z,72.50
2019-05-15T23:22:27.943Z,72.20
2019-05-15T23:24:59.214Z,72.50
2019-05-15T23:27:30.182Z,72.30
2019-05-15T23:30:01.112Z,72.60
2019-05-15T23:32:33.160Z,72.70
2019-05-15T23:35:04.495Z,73.00
2019-05-15T23:37:35.404Z,73.00
2019-05-15T23:40:08.764Z,72.40
2019-05-15T23:42:39.956Z,72.80
2019-05-15T23:45:11.763Z,72.70
2019-05-15T23:47:42.659Z,72.30
2019-05-15T23:50:13.850Z,71.60
2019-05-15T23:52:44.725Z,72.50
2019-05-15T23:55:15.904Z,72.30
2019-05-15T23:57:48.451Z,72.70
